Time;durP1;ratioP1;P1;durP2;ratioP2;P2;SDS_P1;SDS_P2;PMS_P1;PMS_P2;Temp;Humidity;BMP_temperature;BMP_pressure;BME280_temperature;BME280_humidity;BME280_pressure;Samples;Min_cycle;Max_cycle;Signal;HPM_P1;HPM_P2
2021/12/17 00:04:50;;;;;;;53.80;21.38;;;8.40;99.90;;;;;;5018130;28;20068;-81
2021/12/17 00:07:17;;;;;;;67.38;23.30;;;8.30;99.90;;;;;;5049505;28;20047;-81
2021/12/17 00:09:45;;;;;;;59.20;21.45;;;8.30;99.90;;;;;;5053784;28;20037;-81
2021/12/17 00:12:15;;;;;;;65.30;23.50;;;8.80;99.90;;;;;;5032756;28;20396;-82
2021/12/17 00:14:46;;;;;;;69.07;22.70;;;9.80;99.90;;;;;;5048163;28;20048;-82
2021/12/17 00:17:17;;;;;;;75.20;23.17;;;9.00;99.90;;;;;;5016068;28;20121;-81
2021/12/17 00:20:10;;;;;;;69.18;22.83;;;8.60;99.90;;;;;;5024625;28;20041;-81
2021/12/17 00:49:45;;;;;;;71.00;23.13;;;8.70;99.90;;;;;;5012547;28;20037;-81
2021/12/17 00:52:11;;;;;;;78.25;26.25;;;8.50;99.90;;;;;;5016210;28;20037;-80
2021/12/17 00:54:40;;;;;;;68.93;24.25;;;8.30;99.90;;;;;;5018997;28;20043;-80
2021/12/17 00:57:27;;;;;;;74.70;25.15;;;8.60;99.90;;;;;;5045979;28;20041;-80
2021/12/17 00:59:56;;;;;;;80.00;26.17;;;8.30;99.90;;;;;;5010385;28;20048;-80
2021/12/17 01:02:29;;;;;;;83.63;25.40;;;8.30;99.90;;;;;;5011802;28;20140;-80
2021/12/17 01:05:00;;;;;;;87.88;28.42;;;8.20;99.90;;;;;;5034412;28;20393;-81
2021/12/17 01:07:29;;;;;;;106.63;30.70;;;8.30;99.90;;;;;;5034592;28;20504;-82
2021/12/17 01:09:56;;;;;;;90.57;28.35;;;8.40;99.90;;;;;;5060096;28;20041;-82
2021/12/17 01:12:23;;;;;;;106.35;30.88;;;8.30;99.90;;;;;;5037654;28;20127;-81
2021/12/17 01:14:50;;;;;;;95.18;29.38;;;8.30;99.90;;;;;;5010823;28;20044;-81
2021/12/17 01:17:19;;;;;;;94.60;28.90;;;8.70;99.90;;;;;;4998330;28;20049;-81
2021/12/17 01:25:09;;;;;;;77.28;24.67;;;9.00;99.90;;;;;;5059508;28;20052;-81
2021/12/17 01:35:48;;;;;;;63.72;22.63;;;8.60;99.90;;;;;;5047694;28;20066;-80
2021/12/17 01:43:47;;;;;;;63.65;23.52;;;8.30;99.90;;;;;;5032500;28;20041;-81
2021/12/17 01:46:19;;;;;;;55.83;21.08;;;9.10;99.90;;;;;;5046478;28;20041;-81
2021/12/17 01:59:59;;;;;;;60.13;22.65;;;8.50;99.90;;;;;;5062368;28;20072;-81
2021/12/17 02:02:27;;;;;;;58.80;20.63;;;8.30;99.90;;;;;;5009244;28;20424;-81
2021/12/17 02:04:53;;;;;;;56.55;21.55;;;8.60;99.90;;;;;;5050582;28;20041;-81
2021/12/17 02:07:19;;;;;;;59.63;20.30;;;8.60;99.90;;;;;;5017983;28;20037;-81
2021/12/17 02:20:40;;;;;;;58.05;20.42;;;8.50;99.90;;;;;;5047191;28;20114;-81
2021/12/17 02:28:55;;;;;;;51.45;19.55;;;8.50;99.90;;;;;;5082485;28;20047;-81
2021/12/17 02:33:50;;;;;;;44.63;16.77;;;8.50;99.90;;;;;;5064534;28;20040;-81
2021/12/17 02:36:20;;;;;;;33.45;15.48;;;9.40;99.90;;;;;;5084351;28;20041;-81
2021/12/17 02:38:46;;;;;;;37.40;16.27;;;8.40;99.90;;;;;;5070428;28;20043;-81
2021/12/17 02:46:40;;;;;;;38.88;16.00;;;8.60;99.90;;;;;;5038375;28;23004;-80
2021/12/17 02:49:07;;;;;;;41.85;16.15;;;8.60;99.90;;;;;;5043855;28;20041;-81
2021/12/17 02:51:33;;;;;;;41.97;15.65;;;8.40;99.90;;;;;;5029227;28;20083;-81
2021/12/17 02:53:59;;;;;;;43.67;16.13;;;8.60;99.90;;;;;;5059318;28;20064;-81
2021/12/17 02:56:27;;;;;;;37.05;14.50;;;9.30;99.90;;;;;;5043431;28;20048;-81
2021/12/17 02:58:54;;;;;;;37.58;15.10;;;8.40;99.90;;;;;;5074153;28;20051;-81
2021/12/17 03:01:22;;;;;;;30.15;13.10;;;8.40;99.90;;;;;;5048065;28;20057;-81
2021/12/17 03:03:52;;;;;;;36.70;15.35;;;8.80;99.90;;;;;;5070267;28;20139;-81
2021/12/17 03:06:19;;;;;;;26.20;13.45;;;8.40;99.90;;;;;;5040614;28;20044;-81
2021/12/17 03:08:47;;;;;;;29.83;12.90;;;8.30;99.90;;;;;;5094252;28;20462;-81
2021/12/17 03:11:13;;;;;;;30.98;13.48;;;8.20;99.90;;;;;;5062954;28;20064;-81
2021/12/17 03:13:39;;;;;;;35.28;13.98;;;8.70;99.90;;;;;;5068632;28;20075;-81
2021/12/17 03:16:25;;;;;;;37.28;13.43;;;8.20;99.90;;;;;;5048885;28;20041;-81
2021/12/17 03:19:23;;;;;;;34.47;13.48;;;8.80;99.90;;;;;;5047372;28;20504;-82
2021/12/17 03:24:33;;;;;;;28.75;12.52;;;8.20;99.90;;;;;;5055408;28;20048;-81
2021/12/17 03:26:59;;;;;;;37.67;14.45;;;8.80;99.90;;;;;;5020576;28;20036;-81
2021/12/17 03:29:25;;;;;;;39.08;14.70;;;8.20;99.90;;;;;;5041743;28;20058;-81
2021/12/17 03:31:51;;;;;;;31.00;12.90;;;8.90;99.90;;;;;;5090676;28;20407;-81
2021/12/17 03:34:18;;;;;;;41.95;13.68;;;8.10;99.90;;;;;;5086028;28;20492;-81
2021/12/17 03:36:47;;;;;;;37.88;14.05;;;8.50;99.90;;;;;;5051596;28;20032;-81
2021/12/17 03:39:14;;;;;;;36.58;14.20;;;8.40;99.90;;;;;;5034939;28;20051;-81
2021/12/17 03:41:47;;;;;;;39.28;14.45;;;8.30;99.90;;;;;;5073925;28;20037;-81
2021/12/17 03:44:13;;;;;;;39.75;15.48;;;8.10;99.90;;;;;;5017531;28;20040;-81
2021/12/17 03:46:39;;;;;;;30.85;13.30;;;8.10;99.90;;;;;;5030076;28;20124;-81
2021/12/17 03:49:04;;;;;;;42.13;14.85;;;8.30;99.90;;;;;;5039044;28;20044;-81
2021/12/17 03:51:30;;;;;;;41.47;15.00;;;8.00;99.90;;;;;;5034004;28;20036;-81
2021/12/17 03:53:59;;;;;;;35.35;13.93;;;8.30;99.90;;;;;;5032392;28;20037;-80
2021/12/17 03:56:25;;;;;;;24.67;11.95;;;8.40;99.90;;;;;;5057545;28;20070;-81
2021/12/17 03:58:54;;;;;;;25.60;12.25;;;8.40;99.90;;;;;;5061719;28;20450;-81
2021/12/17 04:01:20;;;;;;;30.02;11.70;;;8.10;99.90;;;;;;5037631;28;20040;-81
2021/12/17 04:03:46;;;;;;;26.77;11.60;;;8.60;99.90;;;;;;5042367;28;20136;-81
2021/12/17 04:06:12;;;;;;;20.20;10.10;;;9.10;99.90;;;;;;5070990;28;20033;-81
2021/12/17 04:08:38;;;;;;;26.88;10.13;;;8.40;99.90;;;;;;5036531;28;20471;-81
2021/12/17 04:11:09;;;;;;;24.05;10.25;;;8.20;99.90;;;;;;5044094;28;20186;-81
2021/12/17 04:13:38;;;;;;;21.63;9.38;;;8.50;99.90;;;;;;5037885;28;20040;-81
2021/12/17 04:16:09;;;;;;;16.42;8.50;;;8.10;99.90;;;;;;5032146;28;20123;-81
2021/12/17 04:18:37;;;;;;;22.55;8.77;;;8.10;99.90;;;;;;5055168;28;20090;-80
2021/12/17 04:21:05;;;;;;;14.73;7.95;;;8.00;99.90;;;;;;5052254;28;20040;-81
2021/12/17 04:23:33;;;;;;;18.95;7.88;;;8.30;99.90;;;;;;5054276;28;20105;-81
2021/12/17 04:25:59;;;;;;;22.23;8.52;;;8.00;99.90;;;;;;5040152;28;20032;-81
2021/12/17 04:28:25;;;;;;;21.48;7.85;;;8.00;99.90;;;;;;5038605;28;20044;-81
2021/12/17 04:30:51;;;;;;;18.38;8.07;;;8.20;99.90;;;;;;5087339;28;20162;-81
2021/12/17 04:33:17;;;;;;;19.38;8.38;;;8.00;99.90;;;;;;5064969;28;20163;-81
2021/12/17 04:35:43;;;;;;;20.05;8.55;;;8.70;99.90;;;;;;5037529;28;20045;-81
2021/12/17 04:38:11;;;;;;;19.75;8.57;;;7.90;99.90;;;;;;5046849;28;20409;-81
2021/12/17 04:40:39;;;;;;;17.33;7.95;;;7.90;99.90;;;;;;5030169;28;20056;-80
2021/12/17 04:45:41;;;;;;;17.50;8.38;;;8.00;99.90;;;;;;5082335;28;20036;-80
2021/12/17 04:59:07;;;;;;;18.77;7.72;;;8.70;99.90;;;;;;5084649;28;20117;-81
2021/12/17 05:01:34;;;;;;;19.02;8.13;;;9.40;99.90;;;;;;5092056;28;20124;-81
2021/12/17 05:04:01;;;;;;;18.85;8.85;;;8.30;99.90;;;;;;5083355;28;20036;-81
2021/12/17 05:06:29;;;;;;;20.20;8.35;;;8.00;99.90;;;;;;5045585;28;20123;-81
2021/12/17 05:09:03;;;;;;;23.70;9.27;;;7.80;99.90;;;;;;5052309;28;20073;-81
2021/12/17 05:19:49;;;;;;;28.73;10.75;;;7.90;99.90;;;;;;5073099;28;20063;-80
2021/12/17 05:22:16;;;;;;;28.58;11.32;;;7.90;99.90;;;;;;5050777;28;20049;-81
2021/12/17 05:24:43;;;;;;;27.98;11.07;;;8.10;99.90;;;;;;5054405;28;20445;-81
2021/12/17 05:27:09;;;;;;;27.60;10.52;;;8.00;99.90;;;;;;5070565;28;20072;-80
2021/12/17 05:29:35;;;;;;;24.80;10.65;;;8.00;99.90;;;;;;5036139;28;20095;-80
2021/12/17 05:32:01;;;;;;;31.00;11.52;;;8.70;99.90;;;;;;5044596;28;20029;-80
2021/12/17 05:34:27;;;;;;;32.20;11.98;;;7.90;99.90;;;;;;5047188;28;20163;-80
2021/12/17 05:36:52;;;;;;;25.17;11.05;;;7.90;99.90;;;;;;5033502;28;20074;-80
2021/12/17 05:39:18;;;;;;;29.73;11.20;;;7.90;99.90;;;;;;5028844;28;20071;-81
2021/12/17 05:41:45;;;;;;;21.73;10.10;;;8.30;99.90;;;;;;5071587;28;20132;-81
2021/12/17 05:44:14;;;;;;;26.20;10.45;;;8.00;99.90;;;;;;5040589;28;20558;-81
2021/12/17 05:46:49;;;;;;;33.20;11.38;;;7.90;99.90;;;;;;5048390;28;20324;-81
2021/12/17 05:49:17;;;;;;;21.92;9.27;;;8.20;99.90;;;;;;5038010;28;20043;-81
2021/12/17 05:51:42;;;;;;;29.45;10.73;;;8.50;99.90;;;;;;5044366;28;20043;-81
2021/12/17 05:54:08;;;;;;;24.85;10.13;;;7.90;99.90;;;;;;5047241;28;20391;-81
2021/12/17 05:56:34;;;;;;;25.08;10.43;;;7.90;99.90;;;;;;5047430;28;20109;-80
2021/12/17 05:59:00;;;;;;;23.90;10.07;;;7.90;99.90;;;;;;5018790;28;20033;-81
2021/12/17 06:01:25;;;;;;;26.83;11.18;;;8.00;99.90;;;;;;5004677;28;20376;-81
2021/12/17 06:03:51;;;;;;;21.90;10.07;;;7.90;99.90;;;;;;5083084;28;20144;-80
2021/12/17 06:06:35;;;;;;;21.77;10.20;;;8.00;99.90;;;;;;5033818;28;20037;-80
2021/12/17 06:09:07;;;;;;;22.83;9.90;;;7.80;99.90;;;;;;5065199;28;20037;-81
2021/12/17 06:11:34;;;;;;;24.25;11.18;;;7.90;99.90;;;;;;5049779;28;20035;-81
2021/12/17 06:14:00;;;;;;;24.20;10.15;;;7.80;99.90;;;;;;5024304;28;20036;-80
2021/12/17 06:16:27;;;;;;;27.10;11.50;;;8.30;99.90;;;;;;5067073;28;20114;-80
2021/12/17 06:18:53;;;;;;;23.80;11.35;;;7.90;99.90;;;;;;5050817;28;20039;-80
2021/12/17 06:21:19;;;;;;;26.95;10.77;;;8.20;99.90;;;;;;5031940;28;20037;-81
2021/12/17 06:23:44;;;;;;;24.90;10.43;;;8.10;99.90;;;;;;5086552;28;20063;-81
2021/12/17 06:26:10;;;;;;;26.08;11.15;;;8.20;99.90;;;;;;5047842;28;20039;-81
2021/12/17 06:28:36;;;;;;;22.80;11.10;;;7.80;99.90;;;;;;5068989;28;20033;-81
2021/12/17 06:31:02;;;;;;;25.33;11.52;;;7.80;99.90;;;;;;5030514;28;20032;-81
2021/12/17 06:33:27;;;;;;;21.55;9.90;;;7.80;99.90;;;;;;5052619;28;20043;-81
2021/12/17 06:35:53;;;;;;;25.58;11.57;;;8.00;99.90;;;;;;5004690;28;20059;-80
2021/12/17 06:38:20;;;;;;;27.23;11.75;;;7.80;99.90;;;;;;5022819;28;20040;-81
2021/12/17 06:40:48;;;;;;;25.67;12.02;;;7.80;99.90;;;;;;5085299;28;20048;-81
2021/12/17 06:43:15;;;;;;;25.95;10.82;;;7.80;99.90;;;;;;5035107;28;20049;-80
2021/12/17 06:46:15;;;;;;;25.52;10.70;;;7.80;99.90;;;;;;5029971;28;20158;-78
2021/12/17 06:48:29;;;;;;;30.42;11.57;;;8.10;99.90;;;;;;5033746;28;20040;-79
2021/12/17 07:05:56;;;;;;;32.65;11.73;;;7.80;99.90;;;;;;5085222;28;20053;-81
2021/12/17 07:34:50;;;;;;;25.95;12.00;;;7.70;99.90;;;;;;5078086;28;20049;-78
2021/12/17 07:39:43;;;;;;;26.65;12.50;;;7.90;99.90;;;;;;5088897;28;20048;-78
2021/12/17 07:42:09;;;;;;;25.92;11.90;;;7.90;99.90;;;;;;5068256;28;20051;-78
2021/12/17 07:44:35;;;;;;;25.85;13.93;;;7.90;99.90;;;;;;5054853;28;20488;-81
2021/12/17 07:47:01;;;;;;;25.23;12.18;;;7.90;99.90;;;;;;5030907;28;20041;-79
2021/12/17 07:49:27;;;;;;;27.70;12.60;;;7.90;99.90;;;;;;5087318;28;20051;-79
2021/12/17 07:51:52;;;;;;;26.45;12.88;;;8.00;99.90;;;;;;5053412;28;20032;-79
2021/12/17 07:54:18;;;;;;;28.55;13.60;;;8.30;99.90;;;;;;5069885;28;20044;-79
2021/12/17 07:56:45;;;;;;;30.33;13.77;;;7.90;99.90;;;;;;5053771;28;20102;-79
2021/12/17 07:59:13;;;;;;;29.27;12.73;;;8.40;99.90;;;;;;5085116;28;20076;-79
2021/12/17 08:01:39;;;;;;;29.50;12.85;;;7.90;99.90;;;;;;5052724;28;20412;-79
2021/12/17 08:04:07;;;;;;;29.65;13.50;;;7.90;99.90;;;;;;5088489;28;20062;-78
2021/12/17 08:06:36;;;;;;;28.77;13.43;;;8.00;99.90;;;;;;5074800;28;20124;-78
2021/12/17 08:09:03;;;;;;;32.00;13.70;;;8.00;99.90;;;;;;5083716;28;20035;-78
2021/12/17 08:11:31;;;;;;;25.10;12.88;;;7.80;99.90;;;;;;5053666;28;20029;-78
2021/12/17 08:13:58;;;;;;;27.98;14.30;;;8.00;99.90;;;;;;5066572;28;20040;-79
2021/12/17 08:29:28;;;;;;;27.98;14.50;;;8.00;99.90;;;;;;5086242;28;20068;-80
2021/12/17 08:31:55;;;;;;;29.40;14.05;;;8.20;99.90;;;;;;5073230;28;20496;-80
2021/12/17 08:34:21;;;;;;;27.95;13.45;;;8.10;99.90;;;;;;5040419;28;20106;-80
2021/12/17 08:36:46;;;;;;;30.05;14.35;;;8.10;99.90;;;;;;5054914;28;20040;-80
2021/12/17 08:39:12;;;;;;;29.10;13.02;;;8.10;99.90;;;;;;5084778;28;20330;-80
2021/12/17 08:41:40;;;;;;;31.20;14.30;;;8.10;99.90;;;;;;5059002;28;20119;-80
2021/12/17 08:44:06;;;;;;;28.42;13.85;;;8.10;99.90;;;;;;5017040;28;20057;-80
2021/12/17 08:46:33;;;;;;;27.95;13.30;;;8.10;99.90;;;;;;5036222;28;20067;-80
2021/12/17 08:48:58;;;;;;;25.98;13.85;;;8.10;99.90;;;;;;5013035;28;20041;-80
2021/12/17 08:51:25;;;;;;;30.70;13.60;;;9.20;99.90;;;;;;5068147;28;20472;-80
2021/12/17 08:53:50;;;;;;;30.05;13.63;;;8.10;99.90;;;;;;5033277;28;20042;-79
2021/12/17 08:56:20;;;;;;;29.88;13.48;;;8.10;99.90;;;;;;5047166;28;20044;-79
2021/12/17 08:58:53;;;;;;;28.65;13.27;;;8.20;99.90;;;;;;5049838;28;20040;-79
2021/12/17 09:01:19;;;;;;;26.63;14.05;;;8.20;99.90;;;;;;5067483;28;20437;-79
2021/12/17 09:03:47;;;;;;;26.13;13.18;;;8.20;99.90;;;;;;5033591;28;20111;-81
2021/12/17 09:06:16;;;;;;;26.90;13.70;;;8.20;99.90;;;;;;5036876;28;20045;-78
2021/12/17 09:08:42;;;;;;;27.98;13.40;;;8.30;99.90;;;;;;5009199;28;20387;-78
2021/12/17 09:11:09;;;;;;;30.17;13.60;;;8.30;99.90;;;;;;5000172;28;20049;-77
2021/12/17 09:13:35;;;;;;;26.35;13.20;;;8.30;99.90;;;;;;5026627;28;20037;-81
2021/12/17 09:16:06;;;;;;;27.85;13.77;;;8.40;99.90;;;;;;4995963;28;20457;-81
2021/12/17 09:18:32;;;;;;;28.15;13.73;;;;;;;;;;4998155;28;20103;-81
2021/12/17 09:20:58;;;;;;;26.48;13.68;;;8.30;99.90;;;;;;4987749;28;20041;-81
2021/12/17 09:23:24;;;;;;;28.30;12.77;;;8.40;99.90;;;;;;5011971;28;20045;-80
2021/12/17 09:25:50;;;;;;;28.65;13.25;;;8.40;99.90;;;;;;4996193;28;20067;-80
2021/12/17 09:28:16;;;;;;;27.30;12.75;;;9.30;99.90;;;;;;5027934;28;20416;-81
2021/12/17 09:30:42;;;;;;;27.48;13.52;;;8.50;99.90;;;;;;5005375;28;20044;-81
2021/12/17 09:33:07;;;;;;;22.83;12.43;;;8.50;99.90;;;;;;4994326;28;20055;-81
2021/12/17 09:35:33;;;;;;;24.02;12.07;;;8.60;99.90;;;;;;4976191;28;20108;-81
2021/12/17 09:37:59;;;;;;;23.73;11.90;;;8.60;99.90;;;;;;5026127;28;20038;-81
2021/12/17 09:40:25;;;;;;;21.80;11.88;;;8.60;99.90;;;;;;4997976;28;20038;-81
2021/12/17 09:42:51;;;;;;;21.65;12.18;;;8.60;99.90;;;;;;5014220;28;20049;-80
2021/12/17 09:45:18;;;;;;;19.67;10.93;;;8.60;99.90;;;;;;4978469;28;20072;-81
2021/12/17 09:47:45;;;;;;;17.75;11.20;;;8.60;99.90;;;;;;5019558;28;20077;-78
2021/12/17 09:50:13;;;;;;;25.23;11.60;;;9.60;99.90;;;;;;4978902;28;20440;-81
2021/12/17 09:52:39;;;;;;;24.10;11.80;;;8.70;99.90;;;;;;5009398;28;20029;-81
2021/12/17 09:55:06;;;;;;;19.98;11.25;;;8.70;99.90;;;;;;4975836;28;20265;-81
2021/12/17 09:57:35;;;;;;;20.13;12.30;;;8.70;99.90;;;;;;4997589;28;20049;-81
2021/12/17 10:00:17;;;;;;;19.08;11.50;;;8.80;99.90;;;;;;4998988;28;20059;-81
2021/12/17 10:02:44;;;;;;;21.95;11.45;;;8.80;99.90;;;;;;5035292;28;20153;-81
2021/12/17 10:05:32;;;;;;;24.23;11.65;;;8.80;99.90;;;;;;5007170;28;20049;-81
2021/12/17 10:08:05;;;;;;;23.15;12.02;;;8.80;99.90;;;;;;5004602;28;20038;-81
2021/12/17 10:10:33;;;;;;;22.83;11.52;;;8.80;99.90;;;;;;5033596;28;20060;-81
2021/12/17 10:13:32;;;;;;;21.80;11.95;;;8.80;99.90;;;;;;5012808;28;20045;-81
2021/12/17 10:16:10;;;;;;;20.23;10.63;;;8.80;99.90;;;;;;4984015;28;20045;-81
2021/12/17 10:18:44;;;;;;;19.17;10.75;;;8.80;99.90;;;;;;5021397;28;20490;-81
2021/12/17 10:21:17;;;;;;;22.13;11.50;;;8.80;99.90;;;;;;5023327;28;20041;-77
2021/12/17 10:23:43;;;;;;;23.13;11.52;;;8.90;99.90;;;;;;5035321;28;20042;-78
2021/12/17 10:26:13;;;;;;;20.10;9.95;;;8.80;99.90;;;;;;5028249;28;20504;-78
2021/12/17 10:28:55;;;;;;;21.88;11.27;;;8.90;99.90;;;;;;5043237;28;20077;-78
2021/12/17 10:31:22;;;;;;;18.80;11.23;;;8.90;99.90;;;;;;5025258;28;20037;-78
2021/12/17 10:33:53;;;;;;;18.67;10.48;;;8.90;99.90;;;;;;5002032;28;20072;-79
2021/12/17 10:36:42;;;;;;;20.67;11.40;;;8.90;99.90;;;;;;5019657;28;20080;-79
2021/12/17 10:39:22;;;;;;;18.70;10.57;;;8.90;99.90;;;;;;5015094;28;20104;-79
2021/12/17 10:41:49;;;;;;;20.63;10.35;;;8.90;99.90;;;;;;5011145;28;20142;-79
2021/12/17 10:44:15;;;;;;;21.80;11.13;;;9.00;99.90;;;;;;5001681;28;20100;-79
2021/12/17 10:47:19;;;;;;;18.80;10.40;;;9.00;99.90;;;;;;5026916;28;20042;-79
2021/12/17 10:49:56;;;;;;;20.75;10.88;;;9.00;99.90;;;;;;5010489;28;20053;-79
2021/12/17 10:52:30;;;;;;;19.98;10.93;;;9.10;99.90;;;;;;5048969;28;20125;-79
2021/12/17 10:55:14;;;;;;;22.70;11.40;;;9.10;99.90;;;;;;5010877;28;20501;-79
2021/12/17 10:57:40;;;;;;;24.02;11.10;;;9.10;99.90;;;;;;5008303;28;20049;-77
2021/12/17 11:00:08;;;;;;;20.30;11.43;;;9.10;99.90;;;;;;5021890;28;20045;-80
2021/12/17 11:02:36;;;;;;;25.50;12.05;;;9.10;99.90;;;;;;5015446;28;20041;-82
2021/12/17 11:05:13;;;;;;;21.35;12.15;;;9.20;99.90;;;;;;4973882;28;20081;-82
2021/12/17 11:07:43;;;;;;;24.92;11.20;;;9.20;99.90;;;;;;5041781;28;20062;-78
2021/12/17 11:10:09;;;;;;;20.38;11.43;;;10.00;99.90;;;;;;4992693;28;20140;-79
2021/12/17 11:12:40;;;;;;;22.25;11.30;;;9.30;99.90;;;;;;5010149;28;20131;-79
2021/12/17 11:15:30;;;;;;;19.33;11.52;;;9.30;99.90;;;;;;5011860;28;20537;-79
2021/12/17 11:18:02;;;;;;;20.23;10.35;;;9.40;99.90;;;;;;4997637;28;20677;-79
2021/12/17 11:20:34;;;;;;;18.20;11.07;;;9.40;99.90;;;;;;5008463;28;20045;-78
2021/12/17 11:23:05;;;;;;;17.95;10.18;;;9.40;99.90;;;;;;5008065;28;20038;-79
2021/12/17 11:25:32;;;;;;;19.85;10.27;;;9.50;99.90;;;;;;5029512;28;20136;-82
2021/12/17 11:27:59;;;;;;;22.27;10.80;;;9.50;99.90;;;;;;4997646;28;20414;-83
2021/12/17 11:30:29;;;;;;;16.63;9.95;;;9.40;99.90;;;;;;5008459;28;20040;-83
2021/12/17 11:32:56;;;;;;;18.38;9.95;;;10.10;99.90;;;;;;4994927;28;20492;-82
2021/12/17 11:35:25;;;;;;;21.15;10.52;;;9.40;99.90;;;;;;5028100;28;20045;-82
2021/12/17 11:37:54;;;;;;;21.95;11.15;;;9.40;99.90;;;;;;5004004;28;20562;-82
2021/12/17 11:40:29;;;;;;;22.30;11.10;;;9.40;99.90;;;;;;5049079;28;20068;-83
2021/12/17 11:43:14;;;;;;;19.35;10.68;;;9.40;99.90;;;;;;5045808;28;20509;-83
2021/12/17 11:45:41;;;;;;;19.05;10.70;;;9.50;99.90;;;;;;5008487;28;20046;-82
2021/12/17 11:48:18;;;;;;;19.02;10.95;;;9.50;99.90;;;;;;5030384;28;20034;-82
2021/12/17 11:50:46;;;;;;;15.80;9.18;;;9.50;99.90;;;;;;5049992;28;20485;-82
2021/12/17 11:53:30;;;;;;;20.52;9.98;;;9.50;99.90;;;;;;5001542;28;20029;-82
2021/12/17 11:55:58;;;;;;;18.23;9.73;;;9.50;99.90;;;;;;5028588;28;20037;-83
2021/12/17 11:58:56;;;;;;;13.40;7.75;;;9.40;99.90;;;;;;5012171;28;20069;-83
2021/12/17 12:01:47;;;;;;;13.68;7.38;;;9.50;99.90;;;;;;5003720;28;20485;-82
2021/12/17 12:04:33;;;;;;;13.75;8.05;;;9.50;99.90;;;;;;5006934;28;20064;-83
2021/12/17 12:07:01;;;;;;;15.85;7.82;;;9.50;99.90;;;;;;5018693;28;20446;-82
2021/12/17 12:09:56;;;;;;;12.15;7.22;;;9.60;99.90;;;;;;5039886;28;20037;-82
2021/12/17 12:12:24;;;;;;;12.82;7.72;;;9.60;99.90;;;;;;4999763;28;20380;-78
2021/12/17 12:14:50;;;;;;;14.52;7.72;;;9.50;99.90;;;;;;5053128;28;20037;-83
2021/12/17 12:17:53;;;;;;;12.77;6.55;;;9.60;99.90;;;;;;5014310;28;20515;-83
2021/12/17 12:20:50;;;;;;;11.00;6.20;;;9.50;99.90;;;;;;5021759;28;20042;-83
2021/12/17 12:23:28;;;;;;;10.90;6.83;;;9.50;99.90;;;;;;5041074;28;20145;-82
2021/12/17 12:26:08;;;;;;;9.45;6.25;;;9.50;99.90;;;;;;5040717;28;20262;-82
2021/12/17 12:28:54;;;;;;;12.18;6.22;;;9.50;99.90;;;;;;5031807;28;20116;-83
2021/12/17 12:34:01;;;;;;;8.93;6.00;;;9.50;99.90;;;;;;5055234;28;20044;-83
2021/12/17 12:36:50;;;;;;;9.80;6.07;;;9.50;99.90;;;;;;5000587;28;20041;-81
2021/12/17 12:39:30;;;;;;;10.00;5.97;;;9.50;99.90;;;;;;4996021;28;20038;-83
2021/12/17 12:41:58;;;;;;;9.73;5.80;;;9.40;99.90;;;;;;5020645;28;20097;-81
2021/12/17 12:44:42;;;;;;;11.63;6.00;;;9.40;99.90;;;;;;4999467;28;20390;-81
2021/12/17 12:47:50;;;;;;;10.52;5.60;;;9.40;99.90;;;;;;5003902;28;20069;-81
2021/12/17 12:50:19;;;;;;;9.20;5.00;;;9.50;99.90;;;;;;4994545;28;20147;-81
2021/12/17 12:52:53;;;;;;;9.10;5.50;;;9.50;99.90;;;;;;5011555;28;20669;-82
2021/12/17 12:55:27;;;;;;;9.18;5.03;;;9.50;99.90;;;;;;4996572;28;20052;-82
2021/12/17 12:57:57;;;;;;;8.52;4.80;;;9.50;99.90;;;;;;5022867;28;20052;-81
2021/12/17 13:00:45;;;;;;;7.85;4.07;;;9.50;99.90;;;;;;5047268;28;20049;-82
2021/12/17 13:03:24;;;;;;;7.63;4.82;;;9.50;99.90;;;;;;5053837;28;20053;-82
2021/12/17 13:05:50;;;;;;;5.97;4.40;;;9.60;99.90;;;;;;5027443;28;20100;-82
2021/12/17 13:08:19;;;;;;;7.45;4.60;;;9.50;99.90;;;;;;5040684;28;20120;-82
2021/12/17 13:10:58;;;;;;;7.85;4.32;;;9.60;99.90;;;;;;5040255;28;20115;-78
2021/12/17 13:21:19;;;;;;;6.60;3.28;;;9.50;99.90;;;;;;5032135;28;20037;-82
2021/12/17 13:24:14;;;;;;;6.60;3.55;;;9.50;99.90;;;;;;5033885;28;20041;-82
2021/12/17 13:26:55;;;;;;;7.90;3.88;;;9.50;99.90;;;;;;5034680;28;20489;-82
2021/12/17 13:29:23;;;;;;;6.65;3.95;;;9.50;99.90;;;;;;5050372;28;20224;-81
2021/12/17 13:32:04;;;;;;;5.35;3.38;;;9.40;99.90;;;;;;5047944;28;20033;-81
2021/12/17 13:34:34;;;;;;;5.20;3.25;;;9.40;99.90;;;;;;5067378;28;20041;-79
2021/12/17 13:37:08;;;;;;;5.35;3.25;;;9.20;99.90;;;;;;5035894;28;20124;-82
2021/12/17 13:39:47;;;;;;;7.43;4.40;;;9.40;99.90;;;;;;5052191;28;20103;-82
2021/12/17 13:42:18;;;;;;;6.13;3.03;;;9.40;99.90;;;;;;5068075;28;20045;-82
2021/12/17 13:44:48;;;;;;;4.40;2.90;;;9.40;99.90;;;;;;5050878;28;20029;-82
2021/12/17 13:47:22;;;;;;;5.50;3.13;;;9.30;99.90;;;;;;5058098;28;20052;-83
2021/12/17 13:50:08;;;;;;;5.22;3.38;;;9.30;99.90;;;;;;5036332;28;20036;-82
2021/12/17 13:52:38;;;;;;;5.88;3.83;;;9.30;99.90;;;;;;5048305;28;20128;-82
2021/12/17 13:55:07;;;;;;;5.78;3.03;;;9.30;99.90;;;;;;5022818;28;20033;-82
2021/12/17 13:57:33;;;;;;;5.60;3.15;;;9.30;99.90;;;;;;5030121;28;20081;-83
2021/12/17 14:00:14;;;;;;;6.60;3.70;;;9.30;99.90;;;;;;5018937;28;20456;-82
2021/12/17 14:02:41;;;;;;;;;;;9.30;99.90;;;;;;5019395;28;20141;-82
2021/12/17 14:05:24;;;;;;;5.65;3.33;;;9.30;99.90;;;;;;5031112;28;19943;-82
2021/12/17 14:07:53;;;;;;;6.70;4.53;;;9.20;99.90;;;;;;5001503;28;20037;-81
2021/12/17 14:10:22;;;;;;;7.72;4.00;;;9.40;99.90;;;;;;5058962;28;20037;-82
2021/12/17 14:12:49;;;;;;;6.88;4.40;;;9.30;99.90;;;;;;5055089;28;20039;-82
2021/12/17 14:15:24;;;;;;;7.65;4.22;;;9.20;99.90;;;;;;5023929;28;20044;-82
2021/12/17 14:17:54;;;;;;;5.80;4.22;;;9.20;99.90;;;;;;5027541;28;20122;-83
2021/12/17 14:20:23;;;;;;;8.55;4.70;;;9.20;99.90;;;;;;5066454;28;20048;-82
2021/12/17 14:23:04;;;;;;;8.27;4.63;;;9.20;99.90;;;;;;5015362;28;20028;-83
2021/12/17 14:25:39;;;;;;;6.60;4.60;;;9.20;99.90;;;;;;5037835;28;20033;-83
2021/12/17 14:28:08;;;;;;;7.82;4.95;;;9.50;99.90;;;;;;5037648;28;20043;-82
2021/12/17 14:30:35;;;;;;;8.43;5.32;;;9.20;99.90;;;;;;5019713;28;20033;-83
2021/12/17 14:33:10;;;;;;;6.90;5.05;;;9.20;99.90;;;;;;5027617;28;20041;-82
2021/12/17 14:35:45;;;;;;;8.98;5.50;;;9.20;99.90;;;;;;5030102;28;20065;-81
2021/12/17 14:38:12;;;;;;;10.48;5.32;;;9.10;99.90;;;;;;5009190;28;20547;-81
2021/12/17 14:40:49;;;;;;;7.85;5.43;;;9.20;99.90;;;;;;5027518;28;20128;-81
2021/12/17 14:43:18;;;;;;;9.25;5.40;;;9.10;99.90;;;;;;5026996;28;20111;-81
2021/12/17 14:45:57;;;;;;;8.80;5.57;;;9.10;99.90;;;;;;5011177;28;20060;-81
2021/12/17 14:48:35;;;;;;;9.15;6.15;;;9.10;99.90;;;;;;5013309;28;20044;-80
2021/12/17 15:02:37;;;;;;;11.15;6.10;;;9.10;99.90;;;;;;5063257;28;20139;-81
2021/12/17 15:04:58;;;;;;;7.90;5.75;;;9.10;99.90;;;;;;5010901;28;20041;-81
2021/12/17 15:07:25;;;;;;;9.88;5.70;;;9.10;99.90;;;;;;5012463;28;20128;-81
2021/12/17 15:09:51;;;;;;;9.82;5.32;;;9.00;99.90;;;;;;5028637;28;20119;-81
2021/12/17 15:12:38;;;;;;;8.27;5.05;;;9.10;99.90;;;;;;5044150;28;20129;-82
2021/12/17 15:15:10;;;;;;;9.68;6.38;;;9.10;99.90;;;;;;5041138;28;20037;-81
2021/12/17 15:17:37;;;;;;;11.45;5.80;;;9.00;99.90;;;;;;5012753;28;20044;-81
2021/12/17 15:20:07;;;;;;;8.43;5.50;;;9.10;99.90;;;;;;5028470;28;20465;-81
2021/12/17 15:22:32;;;;;;;7.45;5.25;;;9.00;99.90;;;;;;5027665;28;20053;-82
2021/12/17 15:24:58;;;;;;;10.45;5.20;;;9.00;99.90;;;;;;5008079;28;20041;-82
2021/12/17 15:27:24;;;;;;;9.55;6.32;;;9.00;99.90;;;;;;5027929;28;20106;-82
2021/12/17 15:29:50;;;;;;;9.50;5.07;;;9.00;99.90;;;;;;5027267;28;20033;-82
2021/12/17 15:32:15;;;;;;;9.15;5.30;;;9.10;99.90;;;;;;5011191;28;20037;-82
2021/12/17 15:34:41;;;;;;;8.05;5.13;;;9.00;99.90;;;;;;5027967;28;20037;-82
2021/12/17 15:37:07;;;;;;;7.80;5.07;;;9.00;99.90;;;;;;5010052;28;20044;-82
2021/12/17 15:39:33;;;;;;;8.50;5.03;;;9.00;99.90;;;;;;5004319;28;20041;-82
2021/12/17 15:41:58;;;;;;;11.18;5.07;;;9.80;99.90;;;;;;5007617;28;20032;-81
2021/12/17 15:44:24;;;;;;;9.38;5.07;;;9.00;99.90;;;;;;5044265;28;20060;-82
2021/12/17 15:46:51;;;;;;;10.00;6.10;;;8.90;99.90;;;;;;5031578;28;20033;-82
2021/12/17 15:49:16;;;;;;;7.97;5.80;;;9.00;99.90;;;;;;5028700;28;20033;-81
2021/12/17 15:51:42;;;;;;;10.73;5.80;;;9.00;99.90;;;;;;4988603;28;20036;-81
2021/12/17 15:54:08;;;;;;;10.77;6.50;;;9.00;99.90;;;;;;5009762;28;20041;-81
2021/12/17 15:56:34;;;;;;;9.40;5.88;;;9.00;99.90;;;;;;5028420;28;20049;-81
2021/12/17 15:59:01;;;;;;;8.75;5.75;;;8.90;99.90;;;;;;5012263;28;20121;-82
2021/12/17 16:01:27;;;;;;;9.27;5.97;;;9.00;99.90;;;;;;5013975;28;20103;-82
2021/12/17 16:03:53;;;;;;;9.77;6.55;;;9.00;99.90;;;;;;5006113;28;20387;-82
2021/12/17 16:06:20;;;;;;;11.98;6.93;;;9.00;99.90;;;;;;5027194;28;20053;-82
2021/12/17 16:08:49;;;;;;;13.15;7.25;;;9.00;99.90;;;;;;5010976;28;20041;-82